sensor_id;sensor_type;location;lat;lon;timestamp;P1;durP1;ratioP1;P2;durP2;ratioP2
30681;SDS011;17439;48.092;11.842;2023-04-02T00:04:26;0.35;;;0.05;;
30681;SDS011;17439;48.092;11.842;2023-04-02T00:08:54;0.20;;;0.20;;
30681;SDS011;17439;48.092;11.842;2023-04-02T00:11:26;1.27;;;0.20;;
30681;SDS011;17439;48.092;11.842;2023-04-02T00:13:59;0.55;;;0.30;;
30681;SDS011;17439;48.092;11.842;2023-04-02T00:16:27;0.35;;;0.20;;
30681;SDS011;17439;48.092;11.842;2023-04-02T00:18:55;0.30;;;0.10;;
30681;SDS011;17439;48.092;11.842;2023-04-02T00:21:27;1.10;;;0.28;;
30681;SDS011;17439;48.092;11.842;2023-04-02T00:24:00;0.38;;;0.10;;
30681;SDS011;17439;48.092;11.842;2023-04-02T00:26:39;0.43;;;0.10;;
30681;SDS011;17439;48.092;11.842;2023-04-02T00:29:11;0.75;;;0.20;;
30681;SDS011;17439;48.092;11.842;2023-04-02T00:31:43;0.10;;;0.10;;
30681;SDS011;17439;48.092;11.842;2023-04-02T00:36:58;0.38;;;0.30;;
30681;SDS011;17439;48.092;11.842;2023-04-02T00:39:25;4.63;;;0.50;;
30681;SDS011;17439;48.092;11.842;2023-04-02T00:41:56;1.92;;;0.52;;
30681;SDS011;17439;48.092;11.842;2023-04-02T00:44:24;0.40;;;0.20;;
30681;SDS011;17439;48.092;11.842;2023-04-02T00:46:53;0.63;;;0.15;;
30681;SDS011;17439;48.092;11.842;2023-04-02T00:49:26;2.28;;;0.40;;
30681;SDS011;17439;48.092;11.842;2023-04-02T00:52:13;0.52;;;0.40;;
30681;SDS011;17439;48.092;11.842;2023-04-02T00:54:47;0.30;;;0.13;;
30681;SDS011;17439;48.092;11.842;2023-04-02T00:57:19;1.17;;;0.13;;
30681;SDS011;17439;48.092;11.842;2023-04-02T00:59:56;1.35;;;0.22;;
30681;SDS011;17439;48.092;11.842;2023-04-02T01:02:26;1.88;;;0.43;;
30681;SDS011;17439;48.092;11.842;2023-04-02T01:07:44;0.90;;;0.28;;
30681;SDS011;17439;48.092;11.842;2023-04-02T01:10:29;2.42;;;0.30;;
30681;SDS011;17439;48.092;11.842;2023-04-02T01:13:00;0.35;;;0.20;;
30681;SDS011;17439;48.092;11.842;2023-04-02T01:15:39;0.20;;;0.20;;
30681;SDS011;17439;48.092;11.842;2023-04-02T01:18:27;0.35;;;0.10;;
30681;SDS011;17439;48.092;11.842;2023-04-02T01:26:31;0.93;;;0.30;;
30681;SDS011;17439;48.092;11.842;2023-04-02T01:29:12;0.93;;;0.22;;
30681;SDS011;17439;48.092;11.842;2023-04-02T01:31:41;0.10;;;0.10;;
30681;SDS011;17439;48.092;11.842;2023-04-02T01:34:12;0.35;;;0.00;;
30681;SDS011;17439;48.092;11.842;2023-04-02T01:36:49;0.17;;;0.17;;
30681;SDS011;17439;48.092;11.842;2023-04-02T01:39:30;0.20;;;0.10;;
30681;SDS011;17439;48.092;11.842;2023-04-02T01:42:11;0.20;;;0.10;;
30681;SDS011;17439;48.092;11.842;2023-04-02T01:44:47;0.17;;;0.10;;
30681;SDS011;17439;48.092;11.842;2023-04-02T01:47:22;0.10;;;0.10;;
30681;SDS011;17439;48.092;11.842;2023-04-02T01:49:52;1.85;;;0.20;;
30681;SDS011;17439;48.092;11.842;2023-04-02T01:52:32;0.63;;;0.20;;
30681;SDS011;17439;48.092;11.842;2023-04-02T01:55:04;2.35;;;0.30;;
30681;SDS011;17439;48.092;11.842;2023-04-02T01:57:32;0.38;;;0.20;;
30681;SDS011;17439;48.092;11.842;2023-04-02T01:59:59;1.00;;;0.45;;
30681;SDS011;17439;48.092;11.842;2023-04-02T02:02:27;2.33;;;0.15;;
30681;SDS011;17439;48.092;11.842;2023-04-02T02:04:54;0.98;;;0.63;;
30681;SDS011;17439;48.092;11.842;2023-04-02T02:07:21;1.27;;;0.30;;
30681;SDS011;17439;48.092;11.842;2023-04-02T02:09:51;1.42;;;0.43;;
30681;SDS011;17439;48.092;11.842;2023-04-02T02:12:19;0.27;;;0.10;;
30681;SDS011;17439;48.092;11.842;2023-04-02T02:14:49;0.63;;;0.10;;
30681;SDS011;17439;48.092;11.842;2023-04-02T02:17:24;0.28;;;0.15;;
30681;SDS011;17439;48.092;11.842;2023-04-02T02:19:55;0.10;;;0.10;;
30681;SDS011;17439;48.092;11.842;2023-04-02T02:22:26;0.85;;;0.20;;
30681;SDS011;17439;48.092;11.842;2023-04-02T02:24:56;0.80;;;0.20;;
30681;SDS011;17439;48.092;11.842;2023-04-02T02:30:04;0.20;;;0.10;;
30681;SDS011;17439;48.092;11.842;2023-04-02T02:32:40;1.77;;;0.30;;
30681;SDS011;17439;48.092;11.842;2023-04-02T02:35:15;1.27;;;0.40;;
30681;SDS011;17439;48.092;11.842;2023-04-02T02:38:01;0.32;;;0.10;;
30681;SDS011;17439;48.092;11.842;2023-04-02T02:40:38;0.80;;;0.20;;
30681;SDS011;17439;48.092;11.842;2023-04-02T02:43:11;0.68;;;0.40;;
30681;SDS011;17439;48.092;11.842;2023-04-02T02:45:40;0.70;;;0.20;;
30681;SDS011;17439;48.092;11.842;2023-04-02T02:48:11;0.70;;;0.17;;
30681;SDS011;17439;48.092;11.842;2023-04-02T02:50:41;0.82;;;0.63;;
30681;SDS011;17439;48.092;11.842;2023-04-02T02:53:18;0.00;;;0.00;;
30681;SDS011;17439;48.092;11.842;2023-04-02T02:55:48;0.57;;;0.00;;
30681;SDS011;17439;48.092;11.842;2023-04-02T02:58:23;0.85;;;0.25;;
30681;SDS011;17439;48.092;11.842;2023-04-02T03:01:10;0.30;;;0.10;;
30681;SDS011;17439;48.092;11.842;2023-04-02T03:03:40;1.88;;;0.28;;
30681;SDS011;17439;48.092;11.842;2023-04-02T03:06:09;1.35;;;0.40;;
30681;SDS011;17439;48.092;11.842;2023-04-02T03:14:34;0.43;;;0.30;;
30681;SDS011;17439;48.092;11.842;2023-04-02T03:17:17;1.00;;;0.28;;
30681;SDS011;17439;48.092;11.842;2023-04-02T03:19:59;0.30;;;0.15;;
30681;SDS011;17439;48.092;11.842;2023-04-02T03:22:41;0.98;;;0.10;;
30681;SDS011;17439;48.092;11.842;2023-04-02T03:25:34;1.85;;;0.20;;
30681;SDS011;17439;48.092;11.842;2023-04-02T03:28:12;0.10;;;0.10;;
30681;SDS011;17439;48.092;11.842;2023-04-02T03:30:45;0.15;;;0.10;;
30681;SDS011;17439;48.092;11.842;2023-04-02T03:33:20;0.22;;;0.10;;
30681;SDS011;17439;48.092;11.842;2023-04-02T03:36:00;0.65;;;0.20;;
30681;SDS011;17439;48.092;11.842;2023-04-02T03:38:30;0.10;;;0.10;;
30681;SDS011;17439;48.092;11.842;2023-04-02T03:41:06;0.88;;;0.15;;
30681;SDS011;17439;48.092;11.842;2023-04-02T03:43:44;3.03;;;1.00;;
30681;SDS011;17439;48.092;11.842;2023-04-02T03:46:33;0.20;;;0.20;;
30681;SDS011;17439;48.092;11.842;2023-04-02T03:49:02;0.47;;;0.20;;
30681;SDS011;17439;48.092;11.842;2023-04-02T03:51:36;4.00;;;0.30;;
30681;SDS011;17439;48.092;11.842;2023-04-02T03:54:19;0.43;;;0.20;;
30681;SDS011;17439;48.092;11.842;2023-04-02T03:56:46;0.77;;;0.17;;
30681;SDS011;17439;48.092;11.842;2023-04-02T04:04:52;0.20;;;0.20;;
30681;SDS011;17439;48.092;11.842;2023-04-02T04:09:56;0.65;;;0.20;;
30681;SDS011;17439;48.092;11.842;2023-04-02T04:12:33;0.20;;;0.15;;
30681;SDS011;17439;48.092;11.842;2023-04-02T04:15:08;0.47;;;0.22;;
30681;SDS011;17439;48.092;11.842;2023-04-02T04:20:29;0.80;;;0.17;;
30681;SDS011;17439;48.092;11.842;2023-04-02T04:23:09;0.30;;;0.10;;
30681;SDS011;17439;48.092;11.842;2023-04-02T04:25:44;1.40;;;0.30;;
30681;SDS011;17439;48.092;11.842;2023-04-02T04:30:52;0.40;;;0.20;;
30681;SDS011;17439;48.092;11.842;2023-04-02T04:33:42;2.67;;;0.32;;
30681;SDS011;17439;48.092;11.842;2023-04-02T04:36:23;3.03;;;0.65;;
30681;SDS011;17439;48.092;11.842;2023-04-02T04:38:55;4.00;;;0.10;;
30681;SDS011;17439;48.092;11.842;2023-04-02T04:41:31;0.50;;;0.20;;
30681;SDS011;17439;48.092;11.842;2023-04-02T04:44:19;0.40;;;0.20;;
30681;SDS011;17439;48.092;11.842;2023-04-02T04:49:35;0.22;;;0.10;;
30681;SDS011;17439;48.092;11.842;2023-04-02T04:52:06;0.35;;;0.20;;
30681;SDS011;17439;48.092;11.842;2023-04-02T04:54:40;0.55;;;0.13;;
30681;SDS011;17439;48.092;11.842;2023-04-02T04:57:17;2.13;;;0.22;;
30681;SDS011;17439;48.092;11.842;2023-04-02T05:00:12;1.45;;;0.20;;
30681;SDS011;17439;48.092;11.842;2023-04-02T05:02:56;4.93;;;0.47;;
30681;SDS011;17439;48.092;11.842;2023-04-02T05:05:29;0.10;;;0.10;;
30681;SDS011;17439;48.092;11.842;2023-04-02T05:08:18;2.00;;;0.13;;
30681;SDS011;17439;48.092;11.842;2023-04-02T05:11:04;0.30;;;0.20;;
30681;SDS011;17439;48.092;11.842;2023-04-02T05:13:41;1.80;;;0.35;;
30681;SDS011;17439;48.092;11.842;2023-04-02T05:16:23;1.33;;;0.30;;
30681;SDS011;17439;48.092;11.842;2023-04-02T05:18:57;0.70;;;0.40;;
30681;SDS011;17439;48.092;11.842;2023-04-02T05:21:54;0.77;;;0.25;;
30681;SDS011;17439;48.092;11.842;2023-04-02T05:27:14;1.15;;;0.40;;
30681;SDS011;17439;48.092;11.842;2023-04-02T05:29:51;2.28;;;0.30;;
30681;SDS011;17439;48.092;11.842;2023-04-02T05:32:27;1.75;;;0.52;;
30681;SDS011;17439;48.092;11.842;2023-04-02T05:35:01;1.95;;;0.50;;
30681;SDS011;17439;48.092;11.842;2023-04-02T05:37:30;3.00;;;0.57;;
30681;SDS011;17439;48.092;11.842;2023-04-02T05:39:59;1.55;;;0.52;;
30681;SDS011;17439;48.092;11.842;2023-04-02T05:42:41;3.88;;;0.40;;
30681;SDS011;17439;48.092;11.842;2023-04-02T05:45:22;2.42;;;0.95;;
30681;SDS011;17439;48.092;11.842;2023-04-02T05:47:56;0.95;;;0.30;;
30681;SDS011;17439;48.092;11.842;2023-04-02T05:50:34;1.65;;;0.50;;
30681;SDS011;17439;48.092;11.842;2023-04-02T05:53:20;0.80;;;0.40;;
30681;SDS011;17439;48.092;11.842;2023-04-02T05:56:11;0.68;;;0.57;;
30681;SDS011;17439;48.092;11.842;2023-04-02T05:58:51;1.48;;;0.40;;
30681;SDS011;17439;48.092;11.842;2023-04-02T06:04:41;0.95;;;0.30;;
30681;SDS011;17439;48.092;11.842;2023-04-02T06:07:21;1.88;;;0.22;;
30681;SDS011;17439;48.092;11.842;2023-04-02T06:12:42;0.20;;;0.10;;
30681;SDS011;17439;48.092;11.842;2023-04-02T06:20:52;2.72;;;0.28;;
30681;SDS011;17439;48.092;11.842;2023-04-02T06:23:23;0.53;;;0.30;;
30681;SDS011;17439;48.092;11.842;2023-04-02T06:25:59;0.68;;;0.20;;
30681;SDS011;17439;48.092;11.842;2023-04-02T06:28:39;1.95;;;0.35;;
30681;SDS011;17439;48.092;11.842;2023-04-02T06:31:20;4.25;;;0.70;;
30681;SDS011;17439;48.092;11.842;2023-04-02T06:33:54;1.00;;;0.40;;
30681;SDS011;17439;48.092;11.842;2023-04-02T06:36:24;0.80;;;0.30;;
30681;SDS011;17439;48.092;11.842;2023-04-02T06:39:02;0.63;;;0.30;;
30681;SDS011;17439;48.092;11.842;2023-04-02T06:41:33;0.60;;;0.30;;
30681;SDS011;17439;48.092;11.842;2023-04-02T06:44:23;0.45;;;0.20;;
30681;SDS011;17439;48.092;11.842;2023-04-02T06:46:59;0.90;;;0.20;;
30681;SDS011;17439;48.092;11.842;2023-04-02T06:49:32;0.40;;;0.30;;
30681;SDS011;17439;48.092;11.842;2023-04-02T06:52:03;0.40;;;0.30;;
30681;SDS011;17439;48.092;11.842;2023-04-02T06:54:34;0.82;;;0.32;;
30681;SDS011;17439;48.092;11.842;2023-04-02T06:57:04;1.52;;;0.22;;
30681;SDS011;17439;48.092;11.842;2023-04-02T06:59:35;1.88;;;0.50;;
30681;SDS011;17439;48.092;11.842;2023-04-02T07:05:06;0.70;;;0.20;;
30681;SDS011;17439;48.092;11.842;2023-04-02T07:07:37;1.77;;;0.40;;
30681;SDS011;17439;48.092;11.842;2023-04-02T07:10:06;0.55;;;0.38;;
30681;SDS011;17439;48.092;11.842;2023-04-02T07:12:33;2.63;;;0.43;;
30681;SDS011;17439;48.092;11.842;2023-04-02T07:15:00;2.20;;;0.50;;
30681;SDS011;17439;48.092;11.842;2023-04-02T07:17:27;2.95;;;0.38;;
30681;SDS011;17439;48.092;11.842;2023-04-02T07:19:54;1.02;;;0.45;;
30681;SDS011;17439;48.092;11.842;2023-04-02T07:22:21;1.48;;;0.57;;
30681;SDS011;17439;48.092;11.842;2023-04-02T07:24:52;0.93;;;0.20;;
30681;SDS011;17439;48.092;11.842;2023-04-02T07:27:19;0.82;;;0.45;;
30681;SDS011;17439;48.092;11.842;2023-04-02T07:29:46;0.52;;;0.30;;
30681;SDS011;17439;48.092;11.842;2023-04-02T07:32:13;2.15;;;0.32;;
30681;SDS011;17439;48.092;11.842;2023-04-02T07:34:40;1.10;;;0.30;;
30681;SDS011;17439;48.092;11.842;2023-04-02T07:37:08;1.80;;;0.63;;
30681;SDS011;17439;48.092;11.842;2023-04-02T07:39:38;1.65;;;0.38;;
30681;SDS011;17439;48.092;11.842;2023-04-02T07:42:06;0.35;;;0.22;;
30681;SDS011;17439;48.092;11.842;2023-04-02T07:44:32;1.00;;;0.30;;
30681;SDS011;17439;48.092;11.842;2023-04-02T07:46:59;0.63;;;0.30;;
30681;SDS011;17439;48.092;11.842;2023-04-02T07:49:26;1.52;;;0.47;;
30681;SDS011;17439;48.092;11.842;2023-04-02T07:51:52;1.20;;;0.20;;
30681;SDS011;17439;48.092;11.842;2023-04-02T07:54:19;4.82;;;0.63;;
30681;SDS011;17439;48.092;11.842;2023-04-02T07:56:45;0.90;;;0.20;;
30681;SDS011;17439;48.092;11.842;2023-04-02T07:59:12;2.28;;;0.40;;
30681;SDS011;17439;48.092;11.842;2023-04-02T08:01:39;5.25;;;0.40;;
30681;SDS011;17439;48.092;11.842;2023-04-02T08:04:08;1.10;;;0.30;;
30681;SDS011;17439;48.092;11.842;2023-04-02T08:06:42;1.02;;;0.30;;
30681;SDS011;17439;48.092;11.842;2023-04-02T08:09:09;1.25;;;0.55;;
30681;SDS011;17439;48.092;11.842;2023-04-02T08:11:36;2.42;;;0.40;;
30681;SDS011;17439;48.092;11.842;2023-04-02T08:14:02;2.33;;;0.95;;
30681;SDS011;17439;48.092;11.842;2023-04-02T08:16:42;3.17;;;0.40;;
30681;SDS011;17439;48.092;11.842;2023-04-02T08:19:14;1.02;;;0.47;;
30681;SDS011;17439;48.092;11.842;2023-04-02T08:21:40;0.47;;;0.47;;
30681;SDS011;17439;48.092;11.842;2023-04-02T08:24:07;0.35;;;0.15;;
30681;SDS011;17439;48.092;11.842;2023-04-02T08:26:34;1.80;;;0.47;;
30681;SDS011;17439;48.092;11.842;2023-04-02T08:29:01;4.32;;;1.17;;
30681;SDS011;17439;48.092;11.842;2023-04-02T08:31:27;1.90;;;0.45;;
30681;SDS011;17439;48.092;11.842;2023-04-02T08:33:54;1.40;;;0.30;;
30681;SDS011;17439;48.092;11.842;2023-04-02T08:36:25;2.08;;;0.30;;
30681;SDS011;17439;48.092;11.842;2023-04-02T08:38:55;4.60;;;2.10;;
30681;SDS011;17439;48.092;11.842;2023-04-02T08:41:23;8.65;;;1.15;;
30681;SDS011;17439;48.092;11.842;2023-04-02T08:46:55;1.93;;;0.40;;
30681;SDS011;17439;48.092;11.842;2023-04-02T08:49:30;2.22;;;0.90;;
30681;SDS011;17439;48.092;11.842;2023-04-02T08:52:00;12.98;;;5.35;;
30681;SDS011;17439;48.092;11.842;2023-04-02T08:54:28;12.63;;;4.30;;
30681;SDS011;17439;48.092;11.842;2023-04-02T08:57:01;14.55;;;4.80;;
30681;SDS011;17439;48.092;11.842;2023-04-02T08:59:33;4.55;;;1.60;;
30681;SDS011;17439;48.092;11.842;2023-04-02T09:05:16;5.25;;;1.10;;
30681;SDS011;17439;48.092;11.842;2023-04-02T09:07:48;0.68;;;0.40;;
30681;SDS011;17439;48.092;11.842;2023-04-02T09:10:16;0.20;;;0.20;;
30681;SDS011;17439;48.092;11.842;2023-04-02T09:12:45;0.77;;;0.30;;
30681;SDS011;17439;48.092;11.842;2023-04-02T09:15:33;5.30;;;0.60;;
30681;SDS011;17439;48.092;11.842;2023-04-02T09:18:15;0.82;;;0.30;;
30681;SDS011;17439;48.092;11.842;2023-04-02T09:20:44;1.17;;;0.50;;
30681;SDS011;17439;48.092;11.842;2023-04-02T09:23:13;1.02;;;0.43;;
30681;SDS011;17439;48.092;11.842;2023-04-02T09:25:46;3.75;;;1.20;;
30681;SDS011;17439;48.092;11.842;2023-04-02T09:28:29;3.03;;;0.90;;
30681;SDS011;17439;48.092;11.842;2023-04-02T09:30:58;2.55;;;1.20;;
30681;SDS011;17439;48.092;11.842;2023-04-02T09:33:39;3.10;;;2.15;;
30681;SDS011;17439;48.092;11.842;2023-04-02T09:36:15;3.05;;;0.75;;
30681;SDS011;17439;48.092;11.842;2023-04-02T09:39:27;2.00;;;1.10;;
30681;SDS011;17439;48.092;11.842;2023-04-02T09:41:37;4.05;;;1.98;;
30681;SDS011;17439;48.092;11.842;2023-04-02T09:44:11;1.58;;;1.10;;
30681;SDS011;17439;48.092;11.842;2023-04-02T09:46:52;2.50;;;1.30;;
30681;SDS011;17439;48.092;11.842;2023-04-02T09:49:22;1.40;;;0.65;;
30681;SDS011;17439;48.092;11.842;2023-04-02T09:52:04;1.92;;;0.38;;
30681;SDS011;17439;48.092;11.842;2023-04-02T09:54:43;2.28;;;0.82;;
30681;SDS011;17439;48.092;11.842;2023-04-02T09:57:17;0.90;;;0.40;;
30681;SDS011;17439;48.092;11.842;2023-04-02T10:02:58;0.20;;;0.20;;
30681;SDS011;17439;48.092;11.842;2023-04-02T10:05:31;1.30;;;0.40;;
30681;SDS011;17439;48.092;11.842;2023-04-02T10:08:08;2.53;;;0.35;;
30681;SDS011;17439;48.092;11.842;2023-04-02T10:10:45;0.55;;;0.50;;
30681;SDS011;17439;48.092;11.842;2023-04-02T10:13:17;0.10;;;0.10;;
30681;SDS011;17439;48.092;11.842;2023-04-02T10:19:17;0.32;;;0.20;;
30681;SDS011;17439;48.092;11.842;2023-04-02T10:21:52;2.60;;;0.20;;
30681;SDS011;17439;48.092;11.842;2023-04-02T10:24:20;1.98;;;0.28;;
30681;SDS011;17439;48.092;11.842;2023-04-02T10:32:20;1.33;;;0.25;;
30681;SDS011;17439;48.092;11.842;2023-04-02T10:34:59;0.75;;;0.40;;
30681;SDS011;17439;48.092;11.842;2023-04-02T10:40:30;1.30;;;0.20;;
30681;SDS011;17439;48.092;11.842;2023-04-02T10:51:01;2.90;;;0.80;;
30681;SDS011;17439;48.092;11.842;2023-04-02T10:56:23;0.77;;;0.50;;
30681;SDS011;17439;48.092;11.842;2023-04-02T10:58:54;0.85;;;0.50;;
30681;SDS011;17439;48.092;11.842;2023-04-02T11:01:28;1.45;;;0.60;;
30681;SDS011;17439;48.092;11.842;2023-04-02T11:04:01;0.73;;;0.68;;
30681;SDS011;17439;48.092;11.842;2023-04-02T11:06:31;1.02;;;0.50;;
30681;SDS011;17439;48.092;11.842;2023-04-02T11:09:09;0.95;;;0.40;;
30681;SDS011;17439;48.092;11.842;2023-04-02T11:11:43;0.40;;;0.32;;
30681;SDS011;17439;48.092;11.842;2023-04-02T11:14:31;1.02;;;0.50;;
30681;SDS011;17439;48.092;11.842;2023-04-02T11:16:58;1.65;;;0.73;;
30681;SDS011;17439;48.092;11.842;2023-04-02T11:19:33;0.90;;;0.70;;
30681;SDS011;17439;48.092;11.842;2023-04-02T11:22:00;1.77;;;0.90;;
30681;SDS011;17439;48.092;11.842;2023-04-02T11:24:45;2.67;;;0.50;;
30681;SDS011;17439;48.092;11.842;2023-04-02T11:27:15;0.40;;;0.40;;
30681;SDS011;17439;48.092;11.842;2023-04-02T11:29:49;0.60;;;0.30;;
30681;SDS011;17439;48.092;11.842;2023-04-02T11:40:39;1.25;;;0.60;;
30681;SDS011;17439;48.092;11.842;2023-04-02T11:45:58;1.10;;;0.50;;
30681;SDS011;17439;48.092;11.842;2023-04-02T11:48:51;2.85;;;1.52;;
30681;SDS011;17439;48.092;11.842;2023-04-02T11:53:48;1.73;;;1.15;;
30681;SDS011;17439;48.092;11.842;2023-04-02T11:56:21;1.00;;;0.43;;
30681;SDS011;17439;48.092;11.842;2023-04-02T11:59:16;1.60;;;0.77;;
30681;SDS011;17439;48.092;11.842;2023-04-02T12:04:36;3.20;;;2.00;;
30681;SDS011;17439;48.092;11.842;2023-04-02T12:10:16;1.60;;;0.55;;
30681;SDS011;17439;48.092;11.842;2023-04-02T12:12:44;2.17;;;1.10;;
30681;SDS011;17439;48.092;11.842;2023-04-02T12:18:02;4.85;;;1.20;;
30681;SDS011;17439;48.092;11.842;2023-04-02T12:20:31;2.97;;;0.98;;
30681;SDS011;17439;48.092;11.842;2023-04-02T12:22:59;1.55;;;0.93;;
30681;SDS011;17439;48.092;11.842;2023-04-02T12:25:30;1.50;;;1.07;;
30681;SDS011;17439;48.092;11.842;2023-04-02T12:28:17;0.85;;;0.70;;
30681;SDS011;17439;48.092;11.842;2023-04-02T12:30:45;1.85;;;0.70;;
30681;SDS011;17439;48.092;11.842;2023-04-02T12:33:34;0.63;;;0.40;;
30681;SDS011;17439;48.092;11.842;2023-04-02T12:36:02;0.40;;;0.40;;
30681;SDS011;17439;48.092;11.842;2023-04-02T12:38:33;0.50;;;0.30;;
30681;SDS011;17439;48.092;11.842;2023-04-02T12:41:03;0.50;;;0.40;;
30681;SDS011;17439;48.092;11.842;2023-04-02T12:43:42;0.57;;;0.40;;
30681;SDS011;17439;48.092;11.842;2023-04-02T12:46:11;1.17;;;0.90;;
30681;SDS011;17439;48.092;11.842;2023-04-02T12:48:40;0.82;;;0.60;;
30681;SDS011;17439;48.092;11.842;2023-04-02T12:51:06;0.45;;;0.45;;
30681;SDS011;17439;48.092;11.842;2023-04-02T12:53:37;0.50;;;0.50;;
30681;SDS011;17439;48.092;11.842;2023-04-02T12:56:06;0.55;;;0.40;;
30681;SDS011;17439;48.092;11.842;2023-04-02T12:58:43;1.75;;;0.75;;
30681;SDS011;17439;48.092;11.842;2023-04-02T13:01:24;1.95;;;1.00;;
30681;SDS011;17439;48.092;11.842;2023-04-02T13:03:59;1.05;;;0.93;;
30681;SDS011;17439;48.092;11.842;2023-04-02T13:06:36;1.27;;;1.17;;
30681;SDS011;17439;48.092;11.842;2023-04-02T13:09:05;1.63;;;1.05;;
30681;SDS011;17439;48.092;11.842;2023-04-02T13:11:53;1.90;;;1.30;;
30681;SDS011;17439;48.092;11.842;2023-04-02T13:14:21;11.52;;;5.70;;
30681;SDS011;17439;48.092;11.842;2023-04-02T13:16:49;5.22;;;2.22;;
30681;SDS011;17439;48.092;11.842;2023-04-02T13:21:43;0.60;;;0.55;;
30681;SDS011;17439;48.092;11.842;2023-04-02T13:24:17;0.65;;;0.65;;
30681;SDS011;17439;48.092;11.842;2023-04-02T13:26:45;0.77;;;0.43;;
30681;SDS011;17439;48.092;11.842;2023-04-02T13:29:19;1.60;;;1.08;;
30681;SDS011;17439;48.092;11.842;2023-04-02T13:31:56;1.55;;;1.00;;
30681;SDS011;17439;48.092;11.842;2023-04-02T13:34:31;0.60;;;0.60;;
30681;SDS011;17439;48.092;11.842;2023-04-02T13:36:58;1.27;;;0.70;;
30681;SDS011;17439;48.092;11.842;2023-04-02T13:39:24;0.77;;;0.63;;
30681;SDS011;17439;48.092;11.842;2023-04-02T13:41:58;1.05;;;0.93;;
30681;SDS011;17439;48.092;11.842;2023-04-02T13:44:30;0.77;;;0.60;;
30681;SDS011;17439;48.092;11.842;2023-04-02T13:46:59;1.08;;;0.73;;
30681;SDS011;17439;48.092;11.842;2023-04-02T13:49:26;0.70;;;0.70;;
30681;SDS011;17439;48.092;11.842;2023-04-02T13:51:54;0.45;;;0.45;;
30681;SDS011;17439;48.092;11.842;2023-04-02T13:57:04;4.03;;;1.95;;
30681;SDS011;17439;48.092;11.842;2023-04-02T13:59:31;3.05;;;1.00;;
30681;SDS011;17439;48.092;11.842;2023-04-02T14:01:59;0.90;;;0.70;;
30681;SDS011;17439;48.092;11.842;2023-04-02T14:04:31;0.65;;;0.60;;
30681;SDS011;17439;48.092;11.842;2023-04-02T14:10:24;1.95;;;1.10;;
30681;SDS011;17439;48.092;11.842;2023-04-02T14:23:43;1.95;;;0.60;;
30681;SDS011;17439;48.092;11.842;2023-04-02T14:29:28;1.30;;;0.73;;
30681;SDS011;17439;48.092;11.842;2023-04-02T14:32:23;0.55;;;0.50;;
30681;SDS011;17439;48.092;11.842;2023-04-02T14:37:50;1.35;;;0.30;;
30681;SDS011;17439;48.092;11.842;2023-04-02T14:40:51;0.20;;;0.20;;
30681;SDS011;17439;48.092;11.842;2023-04-02T14:43:37;0.93;;;0.30;;
30681;SDS011;17439;48.092;11.842;2023-04-02T14:46:10;0.93;;;0.60;;
30681;SDS011;17439;48.092;11.842;2023-04-02T14:54:42;0.98;;;0.30;;
30681;SDS011;17439;48.092;11.842;2023-04-02T14:56:46;0.98;;;0.52;;
30681;SDS011;17439;48.092;11.842;2023-04-02T14:59:30;0.45;;;0.30;;
30681;SDS011;17439;48.092;11.842;2023-04-02T15:02:18;0.40;;;0.20;;
30681;SDS011;17439;48.092;11.842;2023-04-02T15:04:55;0.70;;;0.50;;
30681;SDS011;17439;48.092;11.842;2023-04-02T15:07:32;1.08;;;0.88;;
30681;SDS011;17439;48.092;11.842;2023-04-02T15:10:06;1.15;;;0.35;;
30681;SDS011;17439;48.092;11.842;2023-04-02T15:12:35;1.20;;;0.60;;
30681;SDS011;17439;48.092;11.842;2023-04-02T15:15:21;1.00;;;0.40;;
30681;SDS011;17439;48.092;11.842;2023-04-02T15:18:10;1.85;;;0.40;;
30681;SDS011;17439;48.092;11.842;2023-04-02T15:20:43;2.88;;;0.55;;
30681;SDS011;17439;48.092;11.842;2023-04-02T15:26:14;0.32;;;0.28;;
30681;SDS011;17439;48.092;11.842;2023-04-02T15:31:56;1.77;;;0.50;;
30681;SDS011;17439;48.092;11.842;2023-04-02T15:54:40;3.30;;;1.60;;
30681;SDS011;17439;48.092;11.842;2023-04-02T16:05:55;3.65;;;1.40;;
30681;SDS011;17439;48.092;11.842;2023-04-02T16:13:49;3.42;;;1.60;;
30681;SDS011;17439;48.092;11.842;2023-04-02T16:16:21;7.55;;;4.63;;
30681;SDS011;17439;48.092;11.842;2023-04-02T16:24:38;3.15;;;2.40;;
30681;SDS011;17439;48.092;11.842;2023-04-02T16:29:54;4.28;;;2.83;;
30681;SDS011;17439;48.092;11.842;2023-04-02T16:35:40;4.82;;;2.50;;
30681;SDS011;17439;48.092;11.842;2023-04-02T16:38:49;2.38;;;2.17;;
30681;SDS011;17439;48.092;11.842;2023-04-02T16:41:39;2.90;;;2.00;;
30681;SDS011;17439;48.092;11.842;2023-04-02T16:56:01;2.95;;;2.30;;
30681;SDS011;17439;48.092;11.842;2023-04-02T17:01:59;4.30;;;2.88;;
30681;SDS011;17439;48.092;11.842;2023-04-02T17:04:27;4.53;;;2.15;;
30681;SDS011;17439;48.092;11.842;2023-04-02T17:10:23;24.25;;;10.98;;
30681;SDS011;17439;48.092;11.842;2023-04-02T17:13:02;5.65;;;3.28;;
30681;SDS011;17439;48.092;11.842;2023-04-02T17:15:40;2.83;;;2.17;;
30681;SDS011;17439;48.092;11.842;2023-04-02T17:18:17;3.00;;;2.38;;
30681;SDS011;17439;48.092;11.842;2023-04-02T17:20:46;3.72;;;2.45;;
30681;SDS011;17439;48.092;11.842;2023-04-02T17:23:14;3.67;;;2.65;;
30681;SDS011;17439;48.092;11.842;2023-04-02T17:25:49;3.70;;;2.20;;
30681;SDS011;17439;48.092;11.842;2023-04-02T17:28:25;6.53;;;3.20;;
30681;SDS011;17439;48.092;11.842;2023-04-02T17:30:56;3.33;;;2.35;;
30681;SDS011;17439;48.092;11.842;2023-04-02T17:33:25;3.70;;;2.30;;
30681;SDS011;17439;48.092;11.842;2023-04-02T17:44:15;3.15;;;2.30;;
30681;SDS011;17439;48.092;11.842;2023-04-02T17:47:33;2.17;;;1.63;;
30681;SDS011;17439;48.092;11.842;2023-04-02T17:55:28;3.20;;;2.43;;
30681;SDS011;17439;48.092;11.842;2023-04-02T17:58:14;2.88;;;2.33;;
30681;SDS011;17439;48.092;11.842;2023-04-02T18:03:48;4.55;;;2.80;;
30681;SDS011;17439;48.092;11.842;2023-04-02T18:06:28;5.50;;;3.25;;
30681;SDS011;17439;48.092;11.842;2023-04-02T18:17:22;4.97;;;3.67;;
30681;SDS011;17439;48.092;11.842;2023-04-02T18:20:26;5.57;;;4.05;;
30681;SDS011;17439;48.092;11.842;2023-04-02T18:25:36;7.00;;;4.63;;
30681;SDS011;17439;48.092;11.842;2023-04-02T18:28:17;6.78;;;4.18;;
30681;SDS011;17439;48.092;11.842;2023-04-02T18:31:12;7.40;;;5.63;;
30681;SDS011;17439;48.092;11.842;2023-04-02T18:36:38;5.82;;;4.10;;
30681;SDS011;17439;48.092;11.842;2023-04-02T18:39:13;4.68;;;3.50;;
30681;SDS011;17439;48.092;11.842;2023-04-02T18:44:53;4.78;;;3.55;;
30681;SDS011;17439;48.092;11.842;2023-04-02T18:47:33;7.03;;;4.75;;
30681;SDS011;17439;48.092;11.842;2023-04-02T18:50:12;5.72;;;4.10;;
30681;SDS011;17439;48.092;11.842;2023-04-02T18:52:43;6.30;;;4.63;;
30681;SDS011;17439;48.092;11.842;2023-04-02T18:57:44;7.30;;;4.80;;
30681;SDS011;17439;48.092;11.842;2023-04-02T19:03:00;7.75;;;5.18;;
30681;SDS011;17439;48.092;11.842;2023-04-02T19:05:36;7.25;;;4.90;;
30681;SDS011;17439;48.092;11.842;2023-04-02T19:08:23;7.47;;;4.70;;
30681;SDS011;17439;48.092;11.842;2023-04-02T19:11:06;8.00;;;5.10;;
30681;SDS011;17439;48.092;11.842;2023-04-02T19:13:38;7.30;;;5.53;;
30681;SDS011;17439;48.092;11.842;2023-04-02T19:29:59;9.10;;;4.25;;
30681;SDS011;17439;48.092;11.842;2023-04-02T19:35:27;5.97;;;3.60;;
30681;SDS011;17439;48.092;11.842;2023-04-02T19:43:43;11.38;;;4.97;;
30681;SDS011;17439;48.092;11.842;2023-04-02T19:46:10;8.27;;;4.20;;
30681;SDS011;17439;48.092;11.842;2023-04-02T19:48:42;8.10;;;4.22;;
30681;SDS011;17439;48.092;11.842;2023-04-02T19:51:19;6.70;;;3.75;;